sensor_id;sensor_type;location;lat;lon;timestamp;temperature;humidity
4727;DHT22;2377;51.734;8.950;2023-01-01T00:01:26;15.00;99.90
4727;DHT22;2377;51.734;8.950;2023-01-01T00:03:55;15.00;99.90
4727;DHT22;2377;51.734;8.950;2023-01-01T00:06:24;15.00;99.90
4727;DHT22;2377;51.734;8.950;2023-01-01T00:08:51;15.00;99.90
4727;DHT22;2377;51.734;8.950;2023-01-01T00:11:39;15.00;99.90
4727;DHT22;2377;51.734;8.950;2023-01-01T00:14:07;15.10;99.90
4727;DHT22;2377;51.734;8.950;2023-01-01T00:16:34;15.00;99.90
4727;DHT22;2377;51.734;8.950;2023-01-01T00:19:02;15.00;99.90
4727;DHT22;2377;51.734;8.950;2023-01-01T00:21:29;15.00;99.90
4727;DHT22;2377;51.734;8.950;2023-01-01T00:23:56;15.00;99.90
4727;DHT22;2377;51.734;8.950;2023-01-01T00:26:23;15.10;99.90
4727;DHT22;2377;51.734;8.950;2023-01-01T00:28:50;15.10;99.90
4727;DHT22;2377;51.734;8.950;2023-01-01T00:31:20;15.10;99.90
4727;DHT22;2377;51.734;8.950;2023-01-01T00:33:51;15.20;99.90
4727;DHT22;2377;51.734;8.950;2023-01-01T00:36:20;15.20;99.90
4727;DHT22;2377;51.734;8.950;2023-01-01T00:38:49;15.10;99.90
4727;DHT22;2377;51.734;8.950;2023-01-01T00:41:17;15.10;99.90
4727;DHT22;2377;51.734;8.950;2023-01-01T00:43:44;15.10;99.90
4727;DHT22;2377;51.734;8.950;2023-01-01T00:46:12;15.10;99.90
4727;DHT22;2377;51.734;8.950;2023-01-01T00:48:41;15.20;99.90
4727;DHT22;2377;51.734;8.950;2023-01-01T00:51:08;15.20;99.90
4727;DHT22;2377;51.734;8.950;2023-01-01T00:53:35;15.30;99.90
4727;DHT22;2377;51.734;8.950;2023-01-01T00:56:03;15.30;99.90
4727;DHT22;2377;51.734;8.950;2023-01-01T00:58:31;15.30;99.90
4727;DHT22;2377;51.734;8.950;2023-01-01T01:00:58;15.30;99.90
4727;DHT22;2377;51.734;8.950;2023-01-01T01:03:26;15.40;99.90
4727;DHT22;2377;51.734;8.950;2023-01-01T01:05:58;15.40;99.90
4727;DHT22;2377;51.734;8.950;2023-01-01T01:08:36;15.40;99.90
4727;DHT22;2377;51.734;8.950;2023-01-01T01:11:04;15.50;99.90
4727;DHT22;2377;51.734;8.950;2023-01-01T01:13:33;15.30;99.90
4727;DHT22;2377;51.734;8.950;2023-01-01T01:16:00;15.30;99.90
4727;DHT22;2377;51.734;8.950;2023-01-01T01:18:33;15.30;99.90
4727;DHT22;2377;51.734;8.950;2023-01-01T01:21:01;15.30;99.90
4727;DHT22;2377;51.734;8.950;2023-01-01T01:23:29;15.30;99.90
4727;DHT22;2377;51.734;8.950;2023-01-01T01:26:06;15.30;99.90
4727;DHT22;2377;51.734;8.950;2023-01-01T01:28:34;15.30;99.90
4727;DHT22;2377;51.734;8.950;2023-01-01T01:31:02;15.30;99.90
4727;DHT22;2377;51.734;8.950;2023-01-01T01:33:30;15.20;99.90
4727;DHT22;2377;51.734;8.950;2023-01-01T01:35:58;15.10;99.90
4727;DHT22;2377;51.734;8.950;2023-01-01T01:38:26;15.10;99.90
4727;DHT22;2377;51.734;8.950;2023-01-01T01:40:54;15.10;99.90
4727;DHT22;2377;51.734;8.950;2023-01-01T01:43:23;15.20;99.90
4727;DHT22;2377;51.734;8.950;2023-01-01T01:45:53;15.20;99.90
4727;DHT22;2377;51.734;8.950;2023-01-01T01:48:24;15.20;99.90
4727;DHT22;2377;51.734;8.950;2023-01-01T01:50:51;15.10;99.90
4727;DHT22;2377;51.734;8.950;2023-01-01T01:53:23;15.10;99.90
4727;DHT22;2377;51.734;8.950;2023-01-01T01:55:56;15.10;99.90
4727;DHT22;2377;51.734;8.950;2023-01-01T01:58:27;15.10;99.90
4727;DHT22;2377;51.734;8.950;2023-01-01T02:00:56;15.10;99.90
4727;DHT22;2377;51.734;8.950;2023-01-01T02:03:27;15.00;99.90
4727;DHT22;2377;51.734;8.950;2023-01-01T02:06:04;15.00;99.90
4727;DHT22;2377;51.734;8.950;2023-01-01T02:08:33;15.00;99.90
4727;DHT22;2377;51.734;8.950;2023-01-01T02:11:02;15.00;99.90
4727;DHT22;2377;51.734;8.950;2023-01-01T02:13:29;15.00;99.90
4727;DHT22;2377;51.734;8.950;2023-01-01T02:16:03;15.10;99.90
4727;DHT22;2377;51.734;8.950;2023-01-01T02:18:43;15.10;99.90
4727;DHT22;2377;51.734;8.950;2023-01-01T02:21:20;15.10;99.90
4727;DHT22;2377;51.734;8.950;2023-01-01T02:26:53;15.00;99.90
4727;DHT22;2377;51.734;8.950;2023-01-01T02:29:41;15.00;99.90
4727;DHT22;2377;51.734;8.950;2023-01-01T02:32:14;15.00;99.90
4727;DHT22;2377;51.734;8.950;2023-01-01T02:34:46;15.00;99.90
4727;DHT22;2377;51.734;8.950;2023-01-01T02:37:19;15.00;99.90
4727;DHT22;2377;51.734;8.950;2023-01-01T02:39:53;14.90;99.90
4727;DHT22;2377;51.734;8.950;2023-01-01T02:42:27;15.00;99.90
4727;DHT22;2377;51.734;8.950;2023-01-01T02:44:58;14.90;99.90
4727;DHT22;2377;51.734;8.950;2023-01-01T02:47:26;14.90;99.90
4727;DHT22;2377;51.734;8.950;2023-01-01T02:49:57;14.90;99.90
4727;DHT22;2377;51.734;8.950;2023-01-01T02:52:51;14.90;99.90
4727;DHT22;2377;51.734;8.950;2023-01-01T02:55:33;14.80;99.90
4727;DHT22;2377;51.734;8.950;2023-01-01T02:58:15;14.80;99.90
4727;DHT22;2377;51.734;8.950;2023-01-01T03:01:08;14.80;99.90
4727;DHT22;2377;51.734;8.950;2023-01-01T03:03:50;14.90;99.90
4727;DHT22;2377;51.734;8.950;2023-01-01T03:06:31;14.80;99.90
4727;DHT22;2377;51.734;8.950;2023-01-01T03:09:12;14.80;99.90
4727;DHT22;2377;51.734;8.950;2023-01-01T03:11:55;14.80;99.90
4727;DHT22;2377;51.734;8.950;2023-01-01T03:14:33;14.80;99.90
4727;DHT22;2377;51.734;8.950;2023-01-01T03:17:11;14.80;99.90
4727;DHT22;2377;51.734;8.950;2023-01-01T03:19:48;14.80;99.90
4727;DHT22;2377;51.734;8.950;2023-01-01T03:22:18;14.80;99.90
4727;DHT22;2377;51.734;8.950;2023-01-01T03:24:53;14.80;99.90
4727;DHT22;2377;51.734;8.950;2023-01-01T03:27:27;14.70;99.90
4727;DHT22;2377;51.734;8.950;2023-01-01T03:30:00;14.60;99.90
4727;DHT22;2377;51.734;8.950;2023-01-01T03:32:37;14.60;99.90
4727;DHT22;2377;51.734;8.950;2023-01-01T03:35:31;14.60;99.90
4727;DHT22;2377;51.734;8.950;2023-01-01T03:38:05;14.60;99.90
4727;DHT22;2377;51.734;8.950;2023-01-01T03:40:37;14.50;99.90
4727;DHT22;2377;51.734;8.950;2023-01-01T03:43:11;14.50;99.90
4727;DHT22;2377;51.734;8.950;2023-01-01T03:45:44;14.50;99.90
4727;DHT22;2377;51.734;8.950;2023-01-01T03:48:15;14.60;99.90
4727;DHT22;2377;51.734;8.950;2023-01-01T03:50:52;14.50;99.90
4727;DHT22;2377;51.734;8.950;2023-01-01T03:53:33;14.50;99.90
4727;DHT22;2377;51.734;8.950;2023-01-01T03:56:12;14.50;99.90
4727;DHT22;2377;51.734;8.950;2023-01-01T03:58:46;14.40;99.90
4727;DHT22;2377;51.734;8.950;2023-01-01T04:01:22;14.50;99.90
4727;DHT22;2377;51.734;8.950;2023-01-01T04:03:55;14.50;99.90
4727;DHT22;2377;51.734;8.950;2023-01-01T04:06:23;14.60;99.90
4727;DHT22;2377;51.734;8.950;2023-01-01T04:08:56;14.60;99.90
4727;DHT22;2377;51.734;8.950;2023-01-01T04:11:28;14.50;99.90
4727;DHT22;2377;51.734;8.950;2023-01-01T04:14:25;14.50;99.90
4727;DHT22;2377;51.734;8.950;2023-01-01T04:16:54;14.40;99.90
4727;DHT22;2377;51.734;8.950;2023-01-01T04:19:23;14.50;99.90
4727;DHT22;2377;51.734;8.950;2023-01-01T04:21:50;14.50;99.90
4727;DHT22;2377;51.734;8.950;2023-01-01T04:24:18;14.50;99.90
4727;DHT22;2377;51.734;8.950;2023-01-01T04:26:45;14.50;99.90
4727;DHT22;2377;51.734;8.950;2023-01-01T04:29:12;14.50;99.90
4727;DHT22;2377;51.734;8.950;2023-01-01T04:31:40;14.50;99.90
4727;DHT22;2377;51.734;8.950;2023-01-01T04:34:07;14.50;99.90
4727;DHT22;2377;51.734;8.950;2023-01-01T04:36:36;14.50;99.90
4727;DHT22;2377;51.734;8.950;2023-01-01T04:39:03;14.40;99.90
4727;DHT22;2377;51.734;8.950;2023-01-01T04:41:31;14.40;99.90
4727;DHT22;2377;51.734;8.950;2023-01-01T04:43:58;14.40;99.90
4727;DHT22;2377;51.734;8.950;2023-01-01T04:46:26;14.40;99.90
4727;DHT22;2377;51.734;8.950;2023-01-01T04:48:53;14.40;99.90
4727;DHT22;2377;51.734;8.950;2023-01-01T04:51:21;14.30;99.90
4727;DHT22;2377;51.734;8.950;2023-01-01T04:53:49;14.30;99.90
4727;DHT22;2377;51.734;8.950;2023-01-01T04:56:18;14.40;99.90
4727;DHT22;2377;51.734;8.950;2023-01-01T04:58:47;14.30;99.90
4727;DHT22;2377;51.734;8.950;2023-01-01T05:01:16;14.30;99.90
4727;DHT22;2377;51.734;8.950;2023-01-01T05:03:45;14.30;99.90
4727;DHT22;2377;51.734;8.950;2023-01-01T05:06:14;14.30;99.90
4727;DHT22;2377;51.734;8.950;2023-01-01T05:08:43;14.30;99.90
4727;DHT22;2377;51.734;8.950;2023-01-01T05:11:14;14.30;99.90
4727;DHT22;2377;51.734;8.950;2023-01-01T05:13:44;14.20;99.90
4727;DHT22;2377;51.734;8.950;2023-01-01T05:16:14;14.20;99.90
4727;DHT22;2377;51.734;8.950;2023-01-01T05:18:46;14.30;99.90
4727;DHT22;2377;51.734;8.950;2023-01-01T05:21:14;14.30;99.90
4727;DHT22;2377;51.734;8.950;2023-01-01T05:23:44;14.30;99.90
4727;DHT22;2377;51.734;8.950;2023-01-01T05:26:14;14.20;99.90
4727;DHT22;2377;51.734;8.950;2023-01-01T05:28:42;14.10;99.90
4727;DHT22;2377;51.734;8.950;2023-01-01T05:31:12;14.10;99.90
4727;DHT22;2377;51.734;8.950;2023-01-01T05:33:41;14.10;99.90
4727;DHT22;2377;51.734;8.950;2023-01-01T05:36:13;14.10;99.90
4727;DHT22;2377;51.734;8.950;2023-01-01T05:38:41;14.10;99.90
4727;DHT22;2377;51.734;8.950;2023-01-01T05:41:10;14.20;99.90
4727;DHT22;2377;51.734;8.950;2023-01-01T05:43:40;14.20;99.90
4727;DHT22;2377;51.734;8.950;2023-01-01T05:46:10;14.30;99.90
4727;DHT22;2377;51.734;8.950;2023-01-01T05:48:40;14.20;99.90
4727;DHT22;2377;51.734;8.950;2023-01-01T05:51:08;14.20;99.90
4727;DHT22;2377;51.734;8.950;2023-01-01T05:53:38;14.10;99.90
4727;DHT22;2377;51.734;8.950;2023-01-01T05:56:06;14.10;99.90
4727;DHT22;2377;51.734;8.950;2023-01-01T05:58:35;14.10;99.90
4727;DHT22;2377;51.734;8.950;2023-01-01T06:01:07;14.10;99.90
4727;DHT22;2377;51.734;8.950;2023-01-01T06:03:35;14.10;99.90
4727;DHT22;2377;51.734;8.950;2023-01-01T06:06:04;14.00;99.90
4727;DHT22;2377;51.734;8.950;2023-01-01T06:08:31;14.10;99.90
4727;DHT22;2377;51.734;8.950;2023-01-01T06:10:59;14.10;99.90
4727;DHT22;2377;51.734;8.950;2023-01-01T06:13:27;14.00;99.90
4727;DHT22;2377;51.734;8.950;2023-01-01T06:15:58;14.00;99.90
4727;DHT22;2377;51.734;8.950;2023-01-01T06:18:29;14.00;99.90
4727;DHT22;2377;51.734;8.950;2023-01-01T06:21:03;14.00;99.90
4727;DHT22;2377;51.734;8.950;2023-01-01T06:23:31;13.90;99.90
4727;DHT22;2377;51.734;8.950;2023-01-01T06:26:04;14.00;99.90
4727;DHT22;2377;51.734;8.950;2023-01-01T06:28:32;14.00;99.90
4727;DHT22;2377;51.734;8.950;2023-01-01T06:31:01;13.90;99.90
4727;DHT22;2377;51.734;8.950;2023-01-01T06:33:29;13.80;99.90
4727;DHT22;2377;51.734;8.950;2023-01-01T06:35:57;13.90;99.90
4727;DHT22;2377;51.734;8.950;2023-01-01T06:38:24;13.90;99.90
4727;DHT22;2377;51.734;8.950;2023-01-01T06:40:55;13.90;99.90
4727;DHT22;2377;51.734;8.950;2023-01-01T06:43:23;13.90;99.90
4727;DHT22;2377;51.734;8.950;2023-01-01T06:46:03;13.80;99.90
4727;DHT22;2377;51.734;8.950;2023-01-01T06:48:34;13.80;99.90
4727;DHT22;2377;51.734;8.950;2023-01-01T06:51:05;13.80;99.90
4727;DHT22;2377;51.734;8.950;2023-01-01T06:53:33;13.80;99.90
4727;DHT22;2377;51.734;8.950;2023-01-01T06:56:00;13.80;99.90
4727;DHT22;2377;51.734;8.950;2023-01-01T06:58:27;13.80;99.90
4727;DHT22;2377;51.734;8.950;2023-01-01T07:01:03;13.70;99.90
4727;DHT22;2377;51.734;8.950;2023-01-01T07:03:32;13.80;99.90
4727;DHT22;2377;51.734;8.950;2023-01-01T07:05:59;13.80;99.90
4727;DHT22;2377;51.734;8.950;2023-01-01T07:08:29;13.80;99.90
4727;DHT22;2377;51.734;8.950;2023-01-01T07:10:56;13.80;99.90
4727;DHT22;2377;51.734;8.950;2023-01-01T07:13:23;13.80;99.90
4727;DHT22;2377;51.734;8.950;2023-01-01T07:15:51;13.80;99.90
4727;DHT22;2377;51.734;8.950;2023-01-01T07:18:20;13.80;99.90
4727;DHT22;2377;51.734;8.950;2023-01-01T07:20:49;13.80;99.90
4727;DHT22;2377;51.734;8.950;2023-01-01T07:23:18;13.70;99.90
4727;DHT22;2377;51.734;8.950;2023-01-01T07:25:45;13.70;99.90
4727;DHT22;2377;51.734;8.950;2023-01-01T07:28:14;13.80;99.90
4727;DHT22;2377;51.734;8.950;2023-01-01T07:30:42;13.70;99.90
4727;DHT22;2377;51.734;8.950;2023-01-01T07:33:10;13.70;99.90
4727;DHT22;2377;51.734;8.950;2023-01-01T07:35:40;13.80;99.90
4727;DHT22;2377;51.734;8.950;2023-01-01T07:38:07;13.80;99.90
4727;DHT22;2377;51.734;8.950;2023-01-01T07:40:34;13.70;99.90
4727;DHT22;2377;51.734;8.950;2023-01-01T07:43:01;13.70;99.90
4727;DHT22;2377;51.734;8.950;2023-01-01T07:45:29;13.70;99.90
4727;DHT22;2377;51.734;8.950;2023-01-01T07:47:57;13.80;99.90
4727;DHT22;2377;51.734;8.950;2023-01-01T07:50:26;13.70;99.90
4727;DHT22;2377;51.734;8.950;2023-01-01T07:52:57;13.70;99.90
4727;DHT22;2377;51.734;8.950;2023-01-01T07:55:25;13.70;99.90
4727;DHT22;2377;51.734;8.950;2023-01-01T07:57:53;13.70;99.90
4727;DHT22;2377;51.734;8.950;2023-01-01T08:00:20;13.80;99.90
4727;DHT22;2377;51.734;8.950;2023-01-01T08:02:48;13.80;99.90
4727;DHT22;2377;51.734;8.950;2023-01-01T08:05:16;13.80;99.90
4727;DHT22;2377;51.734;8.950;2023-01-01T08:07:45;13.70;99.90
4727;DHT22;2377;51.734;8.950;2023-01-01T08:10:15;13.70;99.90
4727;DHT22;2377;51.734;8.950;2023-01-01T08:12:43;13.70;99.90
4727;DHT22;2377;51.734;8.950;2023-01-01T08:15:10;13.60;99.90
4727;DHT22;2377;51.734;8.950;2023-01-01T08:17:38;13.60;99.90
4727;DHT22;2377;51.734;8.950;2023-01-01T08:20:07;13.60;99.90
4727;DHT22;2377;51.734;8.950;2023-01-01T08:22:35;13.60;1.00
4727;DHT22;2377;51.734;8.950;2023-01-01T08:25:02;13.60;1.00
4727;DHT22;2377;51.734;8.950;2023-01-01T08:27:31;13.50;1.00
4727;DHT22;2377;51.734;8.950;2023-01-01T08:29:59;13.50;1.00
4727;DHT22;2377;51.734;8.950;2023-01-01T08:32:26;13.60;1.00
4727;DHT22;2377;51.734;8.950;2023-01-01T08:34:53;13.50;1.00
4727;DHT22;2377;51.734;8.950;2023-01-01T08:37:20;13.50;1.00
4727;DHT22;2377;51.734;8.950;2023-01-01T08:39:49;13.50;1.00
4727;DHT22;2377;51.734;8.950;2023-01-01T08:42:16;13.60;1.00
4727;DHT22;2377;51.734;8.950;2023-01-01T08:44:45;13.60;99.90
4727;DHT22;2377;51.734;8.950;2023-01-01T08:47:17;13.60;99.90
4727;DHT22;2377;51.734;8.950;2023-01-01T08:49:44;13.60;99.90
4727;DHT22;2377;51.734;8.950;2023-01-01T08:52:12;13.60;99.90
4727;DHT22;2377;51.734;8.950;2023-01-01T08:54:40;13.60;99.90
4727;DHT22;2377;51.734;8.950;2023-01-01T08:57:07;13.60;99.90
4727;DHT22;2377;51.734;8.950;2023-01-01T08:59:34;13.60;99.90
4727;DHT22;2377;51.734;8.950;2023-01-01T09:02:03;13.60;99.90
4727;DHT22;2377;51.734;8.950;2023-01-01T09:04:30;13.50;99.90
4727;DHT22;2377;51.734;8.950;2023-01-01T09:06:58;13.50;99.90
4727;DHT22;2377;51.734;8.950;2023-01-01T09:09:25;13.50;99.90
4727;DHT22;2377;51.734;8.950;2023-01-01T09:11:53;13.50;99.90
4727;DHT22;2377;51.734;8.950;2023-01-01T09:14:23;13.50;99.90
4727;DHT22;2377;51.734;8.950;2023-01-01T09:16:50;13.50;99.90
4727;DHT22;2377;51.734;8.950;2023-01-01T09:19:19;13.60;99.90
4727;DHT22;2377;51.734;8.950;2023-01-01T09:21:46;13.60;99.90
4727;DHT22;2377;51.734;8.950;2023-01-01T09:24:13;13.60;99.90
4727;DHT22;2377;51.734;8.950;2023-01-01T09:26:40;13.60;99.90
4727;DHT22;2377;51.734;8.950;2023-01-01T09:29:07;13.60;99.90
4727;DHT22;2377;51.734;8.950;2023-01-01T09:31:34;13.60;99.90
4727;DHT22;2377;51.734;8.950;2023-01-01T09:34:01;13.60;99.90
4727;DHT22;2377;51.734;8.950;2023-01-01T09:36:31;13.70;99.90
4727;DHT22;2377;51.734;8.950;2023-01-01T09:39:02;13.70;99.90
4727;DHT22;2377;51.734;8.950;2023-01-01T09:41:42;13.70;99.90
4727;DHT22;2377;51.734;8.950;2023-01-01T09:44:25;13.70;99.90
4727;DHT22;2377;51.734;8.950;2023-01-01T09:47:22;13.60;99.90
4727;DHT22;2377;51.734;8.950;2023-01-01T09:49:58;13.80;99.90
4727;DHT22;2377;51.734;8.950;2023-01-01T09:52:36;13.80;99.90
4727;DHT22;2377;51.734;8.950;2023-01-01T09:55:15;13.60;99.90
4727;DHT22;2377;51.734;8.950;2023-01-01T09:57:49;13.70;99.90
4727;DHT22;2377;51.734;8.950;2023-01-01T10:00:18;13.60;1.00
4727;DHT22;2377;51.734;8.950;2023-01-01T10:03:02;13.60;1.00
4727;DHT22;2377;51.734;8.950;2023-01-01T10:05:52;13.60;99.90
4727;DHT22;2377;51.734;8.950;2023-01-01T10:08:42;13.70;99.90
4727;DHT22;2377;51.734;8.950;2023-01-01T10:11:25;13.60;99.90
4727;DHT22;2377;51.734;8.950;2023-01-01T10:13:58;13.60;99.90
4727;DHT22;2377;51.734;8.950;2023-01-01T10:16:31;13.60;99.90
4727;DHT22;2377;51.734;8.950;2023-01-01T10:19:20;13.60;99.90
4727;DHT22;2377;51.734;8.950;2023-01-01T10:21:59;13.60;99.90
4727;DHT22;2377;51.734;8.950;2023-01-01T10:24:37;13.60;99.90
4727;DHT22;2377;51.734;8.950;2023-01-01T10:27:18;13.70;99.90
4727;DHT22;2377;51.734;8.950;2023-01-01T10:29:52;13.70;99.90
4727;DHT22;2377;51.734;8.950;2023-01-01T10:32:20;13.70;99.90
4727;DHT22;2377;51.734;8.950;2023-01-01T10:34:54;13.70;99.90
4727;DHT22;2377;51.734;8.950;2023-01-01T10:37:23;13.80;99.90
4727;DHT22;2377;51.734;8.950;2023-01-01T10:39:52;13.80;1.00
4727;DHT22;2377;51.734;8.950;2023-01-01T10:42:19;13.80;99.90
4727;DHT22;2377;51.734;8.950;2023-01-01T10:44:46;13.80;99.90
4727;DHT22;2377;51.734;8.950;2023-01-01T10:47:25;13.80;99.90
4727;DHT22;2377;51.734;8.950;2023-01-01T10:49:55;13.70;99.90
4727;DHT22;2377;51.734;8.950;2023-01-01T10:52:27;13.80;99.90
4727;DHT22;2377;51.734;8.950;2023-01-01T10:54:58;13.80;99.90
4727;DHT22;2377;51.734;8.950;2023-01-01T10:57:33;13.80;99.90
4727;DHT22;2377;51.734;8.950;2023-01-01T11:00:19;13.80;99.90
4727;DHT22;2377;51.734;8.950;2023-01-01T11:03:10;13.90;99.90
4727;DHT22;2377;51.734;8.950;2023-01-01T11:06:02;14.00;99.90
4727;DHT22;2377;51.734;8.950;2023-01-01T11:08:34;14.00;99.90
4727;DHT22;2377;51.734;8.950;2023-01-01T11:11:04;14.10;99.90
4727;DHT22;2377;51.734;8.950;2023-01-01T11:13:32;14.10;99.90
4727;DHT22;2377;51.734;8.950;2023-01-01T11:16:00;14.10;99.90
4727;DHT22;2377;51.734;8.950;2023-01-01T11:18:28;14.00;99.90
4727;DHT22;2377;51.734;8.950;2023-01-01T11:21:01;14.10;99.90
4727;DHT22;2377;51.734;8.950;2023-01-01T11:23:33;14.10;99.90
4727;DHT22;2377;51.734;8.950;2023-01-01T11:26:06;14.10;99.90
4727;DHT22;2377;51.734;8.950;2023-01-01T11:28:59;14.10;99.90
4727;DHT22;2377;51.734;8.950;2023-01-01T11:31:29;14.10;99.90
4727;DHT22;2377;51.734;8.950;2023-01-01T11:34:02;14.00;99.90
4727;DHT22;2377;51.734;8.950;2023-01-01T11:36:37;14.10;99.90
4727;DHT22;2377;51.734;8.950;2023-01-01T11:39:19;14.10;99.90
4727;DHT22;2377;51.734;8.950;2023-01-01T11:41:50;14.10;99.90
4727;DHT22;2377;51.734;8.950;2023-01-01T11:44:26;14.10;99.90
4727;DHT22;2377;51.734;8.950;2023-01-01T11:47:00;14.10;99.90
4727;DHT22;2377;51.734;8.950;2023-01-01T11:49:28;14.20;99.90
4727;DHT22;2377;51.734;8.950;2023-01-01T11:51:57;14.20;99.90
4727;DHT22;2377;51.734;8.950;2023-01-01T11:54:31;14.20;1.00
4727;DHT22;2377;51.734;8.950;2023-01-01T11:57:09;14.20;99.90
4727;DHT22;2377;51.734;8.950;2023-01-01T11:59:45;14.30;1.00
4727;DHT22;2377;51.734;8.950;2023-01-01T12:02:21;14.30;99.90
4727;DHT22;2377;51.734;8.950;2023-01-01T12:05:06;14.30;99.90
4727;DHT22;2377;51.734;8.950;2023-01-01T12:07:42;14.30;99.90
4727;DHT22;2377;51.734;8.950;2023-01-01T12:10:18;14.30;99.90
4727;DHT22;2377;51.734;8.950;2023-01-01T12:12:56;14.30;1.00
4727;DHT22;2377;51.734;8.950;2023-01-01T12:15:30;14.20;1.00
4727;DHT22;2377;51.734;8.950;2023-01-01T12:18:07;14.20;1.00
4727;DHT22;2377;51.734;8.950;2023-01-01T12:20:44;14.20;1.00
4727;DHT22;2377;51.734;8.950;2023-01-01T12:23:16;14.30;99.90
4727;DHT22;2377;51.734;8.950;2023-01-01T12:25:48;14.20;99.90
4727;DHT22;2377;51.734;8.950;2023-01-01T12:28:29;14.20;1.00
4727;DHT22;2377;51.734;8.950;2023-01-01T12:31:09;14.20;1.00
4727;DHT22;2377;51.734;8.950;2023-01-01T12:34:02;14.10;1.00
4727;DHT22;2377;51.734;8.950;2023-01-01T12:36:41;14.10;99.90
4727;DHT22;2377;51.734;8.950;2023-01-01T12:39:47;14.10;99.90
4727;DHT22;2377;51.734;8.950;2023-01-01T12:42:59;14.10;99.90
4727;DHT22;2377;51.734;8.950;2023-01-01T12:45:48;14.10;99.90
4727;DHT22;2377;51.734;8.950;2023-01-01T12:48:51;14.10;99.90
4727;DHT22;2377;51.734;8.950;2023-01-01T12:51:40;14.00;99.90
4727;DHT22;2377;51.734;8.950;2023-01-01T12:57:54;14.00;1.00
4727;DHT22;2377;51.734;8.950;2023-01-01T13:00:27;14.00;1.00
4727;DHT22;2377;51.734;8.950;2023-01-01T13:03:02;14.00;1.00
4727;DHT22;2377;51.734;8.950;2023-01-01T13:05:36;13.90;1.00
4727;DHT22;2377;51.734;8.950;2023-01-01T13:08:06;14.00;1.00
4727;DHT22;2377;51.734;8.950;2023-01-01T13:10:36;14.00;1.00
4727;DHT22;2377;51.734;8.950;2023-01-01T13:13:05;14.00;1.00
4727;DHT22;2377;51.734;8.950;2023-01-01T13:15:47;14.00;1.00
4727;DHT22;2377;51.734;8.950;2023-01-01T13:18:22;14.00;1.00
4727;DHT22;2377;51.734;8.950;2023-01-01T13:20:59;14.00;1.00
4727;DHT22;2377;51.734;8.950;2023-01-01T13:23:47;14.00;1.00
4727;DHT22;2377;51.734;8.950;2023-01-01T13:26:35;13.90;1.00
4727;DHT22;2377;51.734;8.950;2023-01-01T13:29:37;13.90;1.00
4727;DHT22;2377;51.734;8.950;2023-01-01T13:32:13;14.00;1.00
4727;DHT22;2377;51.734;8.950;2023-01-01T13:35:15;14.00;1.00
4727;DHT22;2377;51.734;8.950;2023-01-01T13:37:46;13.90;1.00
4727;DHT22;2377;51.734;8.950;2023-01-01T13:43:29;13.90;1.00
4727;DHT22;2377;51.734;8.950;2023-01-01T13:45:58;13.80;1.00
4727;DHT22;2377;51.734;8.950;2023-01-01T13:48:39;13.80;1.00
4727;DHT22;2377;51.734;8.950;2023-01-01T13:51:44;13.80;1.00
4727;DHT22;2377;51.734;8.950;2023-01-01T13:55:14;13.80;1.00
4727;DHT22;2377;51.734;8.950;2023-01-01T14:02:13;13.80;1.00
4727;DHT22;2377;51.734;8.950;2023-01-01T14:04:48;13.70;1.00
4727;DHT22;2377;51.734;8.950;2023-01-01T14:07:36;13.70;1.00
4727;DHT22;2377;51.734;8.950;2023-01-01T14:10:23;13.70;1.00
4727;DHT22;2377;51.734;8.950;2023-01-01T14:12:54;13.70;1.00
4727;DHT22;2377;51.734;8.950;2023-01-01T14:15:29;13.80;1.00
4727;DHT22;2377;51.734;8.950;2023-01-01T14:17:58;13.70;1.00
4727;DHT22;2377;51.734;8.950;2023-01-01T14:20:32;13.60;1.00
4727;DHT22;2377;51.734;8.950;2023-01-01T14:23:06;13.60;1.00
4727;DHT22;2377;51.734;8.950;2023-01-01T14:25:39;13.60;1.00
4727;DHT22;2377;51.734;8.950;2023-01-01T14:28:15;13.60;1.00
4727;DHT22;2377;51.734;8.950;2023-01-01T14:30:45;13.60;1.00
4727;DHT22;2377;51.734;8.950;2023-01-01T14:33:21;13.60;1.00
4727;DHT22;2377;51.734;8.950;2023-01-01T14:35:50;13.60;1.00
4727;DHT22;2377;51.734;8.950;2023-01-01T14:38:24;13.60;1.00
4727;DHT22;2377;51.734;8.950;2023-01-01T14:41:15;13.60;1.00
4727;DHT22;2377;51.734;8.950;2023-01-01T14:43:48;13.60;1.00
4727;DHT22;2377;51.734;8.950;2023-01-01T14:46:20;13.60;1.00
4727;DHT22;2377;51.734;8.950;2023-01-01T14:48:51;13.60;1.00
4727;DHT22;2377;51.734;8.950;2023-01-01T14:51:22;13.50;1.00
4727;DHT22;2377;51.734;8.950;2023-01-01T14:53:55;13.50;1.00
4727;DHT22;2377;51.734;8.950;2023-01-01T14:56:26;13.50;1.00
4727;DHT22;2377;51.734;8.950;2023-01-01T14:59:03;13.50;1.00
4727;DHT22;2377;51.734;8.950;2023-01-01T15:01:32;13.50;1.00
4727;DHT22;2377;51.734;8.950;2023-01-01T15:04:02;13.40;1.00
4727;DHT22;2377;51.734;8.950;2023-01-01T15:06:31;13.30;1.00
4727;DHT22;2377;51.734;8.950;2023-01-01T15:08:59;13.30;1.00
4727;DHT22;2377;51.734;8.950;2023-01-01T15:11:26;13.30;1.00
4727;DHT22;2377;51.734;8.950;2023-01-01T15:13:55;13.30;1.00
4727;DHT22;2377;51.734;8.950;2023-01-01T15:16:24;13.20;1.00
4727;DHT22;2377;51.734;8.950;2023-01-01T15:18:52;13.20;1.00
4727;DHT22;2377;51.734;8.950;2023-01-01T15:21:35;13.20;1.00
4727;DHT22;2377;51.734;8.950;2023-01-01T15:24:11;13.20;1.00
4727;DHT22;2377;51.734;8.950;2023-01-01T15:26:42;13.20;1.00
4727;DHT22;2377;51.734;8.950;2023-01-01T15:29:16;13.20;1.00
4727;DHT22;2377;51.734;8.950;2023-01-01T15:31:53;13.10;1.00
4727;DHT22;2377;51.734;8.950;2023-01-01T15:34:25;13.10;1.00
4727;DHT22;2377;51.734;8.950;2023-01-01T15:37:04;13.10;1.00
4727;DHT22;2377;51.734;8.950;2023-01-01T15:39:46;13.10;1.00
4727;DHT22;2377;51.734;8.950;2023-01-01T15:42:29;13.10;1.00
4727;DHT22;2377;51.734;8.950;2023-01-01T15:45:17;13.10;1.00
4727;DHT22;2377;51.734;8.950;2023-01-01T15:47:47;13.10;1.00
4727;DHT22;2377;51.734;8.950;2023-01-01T15:50:21;13.10;1.00
4727;DHT22;2377;51.734;8.950;2023-01-01T15:52:52;13.10;1.00
4727;DHT22;2377;51.734;8.950;2023-01-01T15:55:24;13.00;1.00
4727;DHT22;2377;51.734;8.950;2023-01-01T15:57:55;13.00;1.00
4727;DHT22;2377;51.734;8.950;2023-01-01T16:00:26;13.00;1.00
4727;DHT22;2377;51.734;8.950;2023-01-01T16:02:56;13.10;1.00
4727;DHT22;2377;51.734;8.950;2023-01-01T16:05:27;13.10;1.00
4727;DHT22;2377;51.734;8.950;2023-01-01T16:07:59;13.00;1.00
4727;DHT22;2377;51.734;8.950;2023-01-01T16:10:29;13.00;1.00
4727;DHT22;2377;51.734;8.950;2023-01-01T16:12:57;13.00;1.00
4727;DHT22;2377;51.734;8.950;2023-01-01T16:15:25;13.00;1.00
4727;DHT22;2377;51.734;8.950;2023-01-01T16:17:52;13.00;1.00
4727;DHT22;2377;51.734;8.950;2023-01-01T16:20:20;13.00;1.00
4727;DHT22;2377;51.734;8.950;2023-01-01T16:22:47;13.00;1.00
4727;DHT22;2377;51.734;8.950;2023-01-01T16:25:16;13.00;1.00
4727;DHT22;2377;51.734;8.950;2023-01-01T16:27:47;13.00;1.00
4727;DHT22;2377;51.734;8.950;2023-01-01T16:30:14;13.00;1.00
4727;DHT22;2377;51.734;8.950;2023-01-01T16:32:42;12.90;1.00
4727;DHT22;2377;51.734;8.950;2023-01-01T16:35:12;12.90;1.00
4727;DHT22;2377;51.734;8.950;2023-01-01T16:37:39;12.90;1.00
4727;DHT22;2377;51.734;8.950;2023-01-01T16:40:07;12.90;1.00
4727;DHT22;2377;51.734;8.950;2023-01-01T16:42:35;12.90;1.00
4727;DHT22;2377;51.734;8.950;2023-01-01T16:45:04;12.90;1.00
4727;DHT22;2377;51.734;8.950;2023-01-01T16:47:32;12.90;1.00
4727;DHT22;2377;51.734;8.950;2023-01-01T16:49:59;12.80;1.00
4727;DHT22;2377;51.734;8.950;2023-01-01T16:52:26;12.80;1.00
4727;DHT22;2377;51.734;8.950;2023-01-01T16:54:54;12.80;1.00
4727;DHT22;2377;51.734;8.950;2023-01-01T16:57:21;12.80;1.00